createdAt,value
2022-12-06T00:00:28.645Z,18.52
2022-12-06T00:01:18.857Z,18.50
2022-12-06T00:02:05.522Z,19.04
2022-12-06T00:02:52.335Z,18.80
2022-12-06T00:03:40.887Z,18.69
2022-12-06T00:04:27.670Z,19.44
2022-12-06T00:05:14.360Z,19.92
2022-12-06T00:06:13.225Z,18.92
2022-12-06T00:07:00.034Z,20.64
2022-12-06T00:07:46.794Z,20.48
2022-12-06T00:08:34.667Z,19.75
2022-12-06T00:09:39.144Z,20.36
2022-12-06T00:10:26.585Z,20.78
2022-12-06T00:11:17.060Z,21.42
2022-12-06T00:12:03.887Z,20.84
2022-12-06T00:12:50.635Z,20.02
2022-12-06T00:13:38.504Z,19.80
2022-12-06T00:14:26.713Z,20.20
2022-12-06T00:15:13.637Z,20.65
2022-12-06T00:16:03.057Z,20.44
2022-12-06T00:16:50.231Z,20.45
2022-12-06T00:17:42.771Z,20.51
2022-12-06T00:18:32.664Z,20.08
2022-12-06T00:19:22.343Z,20.20
2022-12-06T00:20:09.960Z,19.73
2022-12-06T00:20:57.170Z,19.82
2022-12-06T00:21:44.474Z,19.99
2022-12-06T00:22:31.213Z,19.82
2022-12-06T00:23:18.024Z,20.21
2022-12-06T00:24:14.317Z,20.06
2022-12-06T00:25:01.088Z,18.54
2022-12-06T00:25:47.887Z,18.57
2022-12-06T00:26:43.422Z,18.96
2022-12-06T00:27:30.221Z,18.68
2022-12-06T00:28:16.976Z,19.68
2022-12-06T00:29:04.776Z,19.73
2022-12-06T00:29:51.567Z,19.34
2022-12-06T00:30:38.209Z,19.25
2022-12-06T00:31:27.839Z,19.46
2022-12-06T00:32:19.289Z,19.30
2022-12-06T00:33:06.262Z,19.33
2022-12-06T00:33:54.404Z,18.96
2022-12-06T00:34:41.162Z,19.13
2022-12-06T00:35:27.777Z,18.31
2022-12-06T00:36:18.311Z,19.05
2022-12-06T00:37:04.929Z,19.44
2022-12-06T00:37:51.665Z,18.70
2022-12-06T00:38:38.353Z,19.04
2022-12-06T00:39:27.099Z,18.04
2022-12-06T00:40:14.077Z,18.22
2022-12-06T00:41:07.638Z,17.88
2022-12-06T00:41:56.363Z,18.95
2022-12-06T00:42:42.886Z,18.90
2022-12-06T00:43:31.131Z,18.37
2022-12-06T00:44:17.905Z,18.52
2022-12-06T00:45:05.263Z,18.74
2022-12-06T00:45:51.882Z,18.27
2022-12-06T00:46:39.607Z,19.02
2022-12-06T00:47:26.198Z,18.73
2022-12-06T00:48:12.834Z,18.63
2022-12-06T00:49:02.024Z,19.00
2022-12-06T00:49:48.957Z,18.66
2022-12-06T00:50:36.292Z,18.86
2022-12-06T00:51:24.815Z,17.79
2022-12-06T00:52:11.579Z,19.37
2022-12-06T00:52:58.294Z,18.66
2022-12-06T00:53:45.535Z,19.36
2022-12-06T00:54:32.085Z,19.56
2022-12-06T00:55:18.788Z,18.20
2022-12-06T00:56:06.005Z,18.48
2022-12-06T00:56:52.901Z,17.95
2022-12-06T00:57:39.676Z,18.16
2022-12-06T00:58:26.281Z,17.75
2022-12-06T00:59:12.875Z,17.84
2022-12-06T01:00:00.012Z,17.75
2022-12-06T01:00:47.352Z,18.23
2022-12-06T01:01:36.588Z,17.58
2022-12-06T01:02:23.273Z,17.86
2022-12-06T01:03:10.698Z,18.09
2022-12-06T01:04:00.265Z,16.57
2022-12-06T01:04:47.117Z,18.57
2022-12-06T01:05:34.145Z,18.17
2022-12-06T01:06:32.411Z,16.87
2022-12-06T01:07:19.079Z,17.78
2022-12-06T01:08:06.124Z,17.53
2022-12-06T01:08:54.908Z,18.31
2022-12-06T01:09:42.625Z,18.57
2022-12-06T01:10:29.360Z,18.19
2022-12-06T01:11:17.225Z,17.63
2022-12-06T01:12:03.776Z,17.33
2022-12-06T01:12:50.542Z,17.73
2022-12-06T01:13:37.461Z,17.82
2022-12-06T01:14:25.300Z,18.75
2022-12-06T01:15:12.246Z,19.06
2022-12-06T01:16:05.463Z,19.60
2022-12-06T01:16:52.176Z,19.82
2022-12-06T01:17:38.707Z,19.31
2022-12-06T01:18:25.370Z,19.38
2022-12-06T01:19:13.299Z,22.57
2022-12-06T01:20:00.477Z,19.81
2022-12-06T01:20:47.666Z,18.68
2022-12-06T01:21:34.533Z,20.92
2022-12-06T01:22:21.047Z,20.01
2022-12-06T01:23:08.079Z,17.77
2022-12-06T01:23:54.687Z,17.97
2022-12-06T01:24:41.234Z,18.52
2022-12-06T01:25:30.607Z,18.11
2022-12-06T01:26:28.902Z,17.88
2022-12-06T01:27:15.381Z,18.77
2022-12-06T01:28:01.857Z,18.61
2022-12-06T01:28:48.931Z,18.23
2022-12-06T01:29:35.911Z,19.11
2022-12-06T01:30:22.469Z,18.15
2022-12-06T01:31:09.525Z,16.93
2022-12-06T01:31:56.082Z,17.34
2022-12-06T01:32:43.099Z,17.59
2022-12-06T01:33:29.511Z,18.61
2022-12-06T01:34:17.502Z,17.30
2022-12-06T01:35:04.401Z,17.73
2022-12-06T01:35:51.247Z,17.56
2022-12-06T01:36:37.918Z,17.97
2022-12-06T01:37:24.596Z,17.51
2022-12-06T01:38:11.377Z,17.77
2022-12-06T01:39:00.952Z,18.59
2022-12-06T01:39:47.774Z,17.97
2022-12-06T01:40:39.619Z,18.03
2022-12-06T01:41:28.193Z,17.86
2022-12-06T01:42:15.706Z,18.21
2022-12-06T01:43:02.345Z,18.18
2022-12-06T01:43:50.191Z,20.00
2022-12-06T01:44:50.274Z,19.31
2022-12-06T01:45:37.873Z,18.76
2022-12-06T01:46:34.055Z,19.11
2022-12-06T01:47:34.536Z,19.36
2022-12-06T01:48:26.477Z,19.61
2022-12-06T01:49:13.121Z,21.03
2022-12-06T01:50:18.645Z,20.67
2022-12-06T01:51:09.654Z,19.55
2022-12-06T01:52:05.382Z,20.54
2022-12-06T01:52:58.706Z,20.47
2022-12-06T01:53:50.872Z,19.13
2022-12-06T01:54:37.706Z,18.90
2022-12-06T01:55:29.278Z,19.30
2022-12-06T01:56:16.662Z,19.68
2022-12-06T01:57:08.380Z,19.16
2022-12-06T01:58:00.454Z,18.50
2022-12-06T01:58:53.079Z,18.46
2022-12-06T01:59:40.804Z,18.68
2022-12-06T02:00:27.262Z,19.05
2022-12-06T02:01:14.277Z,19.18
2022-12-06T02:02:01.709Z,19.82
2022-12-06T02:02:48.749Z,19.67
2022-12-06T02:03:36.560Z,20.19
2022-12-06T02:04:24.277Z,20.38
2022-12-06T02:05:13.213Z,19.67
2022-12-06T02:06:01.854Z,20.91
2022-12-06T02:06:51.994Z,20.99
2022-12-06T02:07:40.640Z,19.57
2022-12-06T02:08:28.545Z,19.43
2022-12-06T02:09:17.958Z,21.00
2022-12-06T02:10:05.399Z,21.06
2022-12-06T02:10:52.001Z,20.66
2022-12-06T02:11:39.199Z,20.09
2022-12-06T02:12:27.274Z,19.90
2022-12-06T02:13:14.514Z,20.57
2022-12-06T02:14:04.861Z,20.71
2022-12-06T02:14:55.017Z,21.74
2022-12-06T02:16:07.460Z,21.42
2022-12-06T02:17:19.210Z,20.72
2022-12-06T02:18:19.533Z,21.42
2022-12-06T02:19:42.931Z,21.82
2022-12-06T02:21:04.514Z,21.60
2022-12-06T02:22:04.785Z,22.02
2022-12-06T02:23:18.905Z,20.38
2022-12-06T02:24:24.197Z,21.42
2022-12-06T02:25:34.195Z,21.08
2022-12-06T02:26:33.560Z,21.03
2022-12-06T02:27:41.960Z,19.88
2022-12-06T02:28:43.559Z,21.11
2022-12-06T02:29:57.536Z,20.23
2022-12-06T02:31:07.584Z,19.90
2022-12-06T02:32:01.367Z,19.81
2022-12-06T02:33:06.369Z,20.22
2022-12-06T02:34:02.461Z,19.26
2022-12-06T02:35:07.157Z,19.06
2022-12-06T02:35:59.503Z,18.16
2022-12-06T02:36:58.996Z,19.77
2022-12-06T02:37:56.948Z,20.15
2022-12-06T02:38:51.965Z,20.85
2022-12-06T02:39:44.870Z,19.40
2022-12-06T02:40:38.419Z,19.60
2022-12-06T02:41:35.983Z,21.01
2022-12-06T02:42:33.429Z,19.37
2022-12-06T02:43:33.457Z,19.65
2022-12-06T02:44:31.908Z,20.80
2022-12-06T02:45:24.839Z,19.44
2022-12-06T02:46:16.258Z,20.23
2022-12-06T02:47:07.900Z,20.69
2022-12-06T02:48:01.588Z,19.71
2022-12-06T02:48:52.730Z,19.41
2022-12-06T02:49:46.503Z,19.62
2022-12-06T02:50:39.963Z,19.68
2022-12-06T02:51:30.071Z,19.62
2022-12-06T02:52:24.075Z,19.74
2022-12-06T02:53:37.898Z,19.38
2022-12-06T02:54:27.161Z,18.83
2022-12-06T02:55:16.782Z,20.18
2022-12-06T02:56:03.759Z,19.43
2022-12-06T02:56:50.308Z,18.50
2022-12-06T02:57:48.795Z,18.74
2022-12-06T02:58:37.331Z,20.07
2022-12-06T02:59:24.012Z,19.30
2022-12-06T03:00:30.985Z,19.44
2022-12-06T03:01:24.495Z,19.00
2022-12-06T03:02:11.564Z,19.49
2022-12-06T03:03:20.528Z,19.15
2022-12-06T03:04:16.952Z,21.47
2022-12-06T03:05:18.644Z,20.51
2022-12-06T03:06:30.237Z,18.36
2022-12-06T03:07:33.948Z,19.24
2022-12-06T03:08:34.045Z,20.13
2022-12-06T03:09:40.543Z,19.13
2022-12-06T03:10:53.315Z,19.67
2022-12-06T03:11:56.562Z,19.44
2022-12-06T03:12:54.000Z,20.12
2022-12-06T03:13:59.911Z,20.03
2022-12-06T03:14:59.141Z,20.37
2022-12-06T03:15:55.534Z,19.93
2022-12-06T03:16:48.996Z,20.43
2022-12-06T03:17:59.747Z,20.06
2022-12-06T03:19:07.880Z,19.90
2022-12-06T03:20:03.205Z,20.28
2022-12-06T03:21:06.895Z,20.61
2022-12-06T03:22:14.614Z,20.95
2022-12-06T03:23:07.169Z,20.05
2022-12-06T03:23:54.647Z,19.04
2022-12-06T03:24:43.665Z,19.62
2022-12-06T03:25:34.629Z,20.19
2022-12-06T03:26:28.637Z,20.57
2022-12-06T03:27:20.082Z,20.04
2022-12-06T03:28:11.524Z,20.17
2022-12-06T03:29:03.332Z,20.28
2022-12-06T03:30:01.744Z,21.17
2022-12-06T03:30:53.020Z,20.22
2022-12-06T03:31:42.098Z,19.67
2022-12-06T03:32:40.964Z,20.61
2022-12-06T03:33:32.103Z,20.30
2022-12-06T03:34:30.058Z,20.84
2022-12-06T03:35:25.821Z,20.80
2022-12-06T03:36:15.588Z,19.78
2022-12-06T03:37:05.843Z,20.08
2022-12-06T03:38:09.342Z,20.50
2022-12-06T03:39:01.667Z,20.39
2022-12-06T03:39:56.444Z,20.43
2022-12-06T03:40:48.329Z,20.06
2022-12-06T03:41:51.358Z,21.44
2022-12-06T03:42:38.344Z,20.95
2022-12-06T03:43:25.032Z,20.44
2022-12-06T03:44:11.927Z,20.15
2022-12-06T03:44:59.936Z,20.47
2022-12-06T03:45:57.907Z,19.63
2022-12-06T03:46:51.102Z,20.93
2022-12-06T03:48:25.683Z,21.06
2022-12-06T03:49:20.640Z,20.91
2022-12-06T03:50:30.088Z,20.99
2022-12-06T03:51:28.164Z,20.44
2022-12-06T03:52:14.694Z,20.57
2022-12-06T03:53:01.667Z,22.07
2022-12-06T03:53:53.607Z,21.76
2022-12-06T03:54:40.707Z,20.94
2022-12-06T03:55:28.222Z,20.33
2022-12-06T03:56:14.995Z,21.52
2022-12-06T03:57:01.447Z,21.99
2022-12-06T03:57:48.098Z,21.11
2022-12-06T03:58:34.744Z,21.38
2022-12-06T03:59:21.388Z,21.59
2022-12-06T04:00:08.578Z,21.51
2022-12-06T04:01:04.919Z,21.43
2022-12-06T04:01:51.451Z,21.63
2022-12-06T04:02:38.173Z,22.25
2022-12-06T04:03:24.770Z,20.40
2022-12-06T04:04:11.812Z,20.60
2022-12-06T04:04:58.290Z,21.93
2022-12-06T04:05:44.854Z,21.96
2022-12-06T04:06:31.567Z,20.92
2022-12-06T04:07:21.149Z,19.40
2022-12-06T04:08:08.033Z,19.46
2022-12-06T04:09:14.874Z,20.95
2022-12-06T04:10:04.288Z,20.73
2022-12-06T04:10:50.902Z,20.80
2022-12-06T04:11:37.553Z,21.57
2022-12-06T04:12:42.670Z,21.54
2022-12-06T04:13:31.158Z,22.01
2022-12-06T04:14:17.774Z,21.38
2022-12-06T04:15:05.924Z,19.92
2022-12-06T04:15:57.149Z,20.81
2022-12-06T04:17:02.444Z,21.34
2022-12-06T04:18:07.784Z,21.43
2022-12-06T04:18:55.325Z,23.42
2022-12-06T04:19:41.975Z,22.15
2022-12-06T04:20:29.992Z,21.71
2022-12-06T04:21:31.500Z,22.50
2022-12-06T04:22:36.521Z,24.02
2022-12-06T04:23:22.971Z,22.30
2022-12-06T04:24:09.572Z,22.46
2022-12-06T04:24:56.130Z,21.54
2022-12-06T04:25:42.917Z,22.34
2022-12-06T04:26:29.351Z,22.99
2022-12-06T04:27:34.597Z,22.55
2022-12-06T04:28:40.292Z,21.63
2022-12-06T04:29:45.421Z,24.39
2022-12-06T04:30:50.798Z,24.36
2022-12-06T04:31:57.931Z,26.81
2022-12-06T04:33:02.838Z,26.31
2022-12-06T04:34:09.581Z,24.82
2022-12-06T04:35:14.949Z,23.22
2022-12-06T04:36:19.933Z,25.35
2022-12-06T04:37:25.953Z,23.63
2022-12-06T04:38:31.657Z,26.03
2022-12-06T04:39:21.159Z,27.08
2022-12-06T04:40:08.216Z,24.62
2022-12-06T04:40:54.707Z,25.81
2022-12-06T04:42:00.053Z,25.84
2022-12-06T04:43:05.328Z,24.52
2022-12-06T04:43:51.927Z,24.05
2022-12-06T04:44:38.974Z,25.00
2022-12-06T04:45:25.577Z,25.26
2022-12-06T04:46:17.964Z,26.63
2022-12-06T04:47:05.605Z,28.06
2022-12-06T04:47:52.190Z,29.90
2022-12-06T04:48:40.026Z,31.00
2022-12-06T04:49:26.828Z,29.89
2022-12-06T04:50:13.320Z,26.10
2022-12-06T04:50:59.998Z,25.34
2022-12-06T04:51:46.591Z,27.13
2022-12-06T04:52:36.019Z,29.22
2022-12-06T04:53:23.461Z,26.43
2022-12-06T04:54:10.061Z,26.99
2022-12-06T04:54:56.729Z,26.29
2022-12-06T04:55:49.698Z,25.48
2022-12-06T04:56:36.384Z,26.28
2022-12-06T04:57:22.819Z,26.47
2022-12-06T04:58:09.260Z,26.23
2022-12-06T04:58:55.758Z,25.78
2022-12-06T04:59:44.412Z,27.00
2022-12-06T05:00:31.078Z,27.07
2022-12-06T05:01:18.141Z,25.04
2022-12-06T05:02:05.345Z,25.16
2022-12-06T05:02:52.071Z,26.36
2022-12-06T05:03:43.906Z,26.28
2022-12-06T05:04:31.736Z,26.93
2022-12-06T05:05:18.255Z,26.18
2022-12-06T05:06:05.352Z,26.04
2022-12-06T05:06:52.569Z,26.15
2022-12-06T05:07:39.243Z,26.26
2022-12-06T05:08:25.812Z,26.49
2022-12-06T05:09:12.887Z,27.86
2022-12-06T05:09:59.775Z,27.80
2022-12-06T05:10:48.766Z,26.72
2022-12-06T05:11:35.482Z,26.71
2022-12-06T05:12:22.055Z,27.01
2022-12-06T05:13:10.430Z,28.51
2022-12-06T05:13:57.099Z,26.46
2022-12-06T05:14:43.782Z,27.01
2022-12-06T05:15:30.468Z,27.35
2022-12-06T05:16:17.189Z,27.38
2022-12-06T05:17:03.850Z,26.48
2022-12-06T05:17:50.449Z,27.35
2022-12-06T05:18:37.057Z,26.57
2022-12-06T05:19:23.781Z,25.74
2022-12-06T05:20:10.627Z,26.07
2022-12-06T05:21:14.040Z,25.72
2022-12-06T05:22:00.729Z,25.87
2022-12-06T05:22:47.235Z,25.79
2022-12-06T05:23:35.792Z,25.85
2022-12-06T05:24:22.582Z,26.26
2022-12-06T05:25:09.437Z,26.77
2022-12-06T05:26:00.751Z,27.52
2022-12-06T05:26:47.226Z,27.99
2022-12-06T05:27:36.155Z,26.39
2022-12-06T05:28:23.251Z,25.43
2022-12-06T05:29:09.822Z,26.19
2022-12-06T05:29:56.491Z,26.40
2022-12-06T05:30:43.067Z,27.20
2022-12-06T05:31:29.595Z,27.36
2022-12-06T05:32:16.245Z,26.74
2022-12-06T05:33:02.822Z,25.68
2022-12-06T05:33:50.074Z,25.11
2022-12-06T05:34:36.774Z,24.04
2022-12-06T05:35:23.667Z,22.97
2022-12-06T05:36:13.267Z,23.50
2022-12-06T05:36:59.922Z,22.81
2022-12-06T05:37:57.966Z,23.10
2022-12-06T05:38:55.719Z,24.29
2022-12-06T05:40:10.493Z,25.09
2022-12-06T05:40:57.304Z,24.58
2022-12-06T05:41:43.961Z,24.05
2022-12-06T05:42:30.707Z,22.64
2022-12-06T05:43:17.725Z,22.24
2022-12-06T05:44:04.357Z,23.29
2022-12-06T05:44:51.261Z,23.73
2022-12-06T05:45:49.291Z,24.41
2022-12-06T05:46:35.934Z,25.16
2022-12-06T05:47:26.284Z,24.92
2022-12-06T05:48:16.108Z,25.47
2022-12-06T05:49:03.462Z,25.86
2022-12-06T05:49:51.228Z,25.57
2022-12-06T05:50:38.139Z,26.59
2022-12-06T05:51:24.824Z,25.95
2022-12-06T05:52:11.623Z,26.49
2022-12-06T05:53:00.174Z,26.10
2022-12-06T05:53:47.037Z,27.09
2022-12-06T05:54:33.942Z,25.38
2022-12-06T05:55:20.743Z,26.17
2022-12-06T05:56:10.276Z,25.66
2022-12-06T05:56:57.183Z,26.54
2022-12-06T05:57:47.244Z,26.02
2022-12-06T05:58:34.384Z,26.72
2022-12-06T05:59:21.188Z,27.64
2022-12-06T06:00:08.725Z,27.05
2022-12-06T06:01:15.383Z,27.82
2022-12-06T06:02:02.285Z,27.46
2022-12-06T06:02:50.003Z,27.36
2022-12-06T06:03:42.254Z,27.17
2022-12-06T06:04:32.795Z,26.61
2022-12-06T06:05:20.060Z,25.24
2022-12-06T06:06:07.312Z,26.27
2022-12-06T06:06:54.102Z,27.27
2022-12-06T06:07:41.237Z,27.14
2022-12-06T06:08:29.299Z,28.08
2022-12-06T06:09:16.196Z,27.34
2022-12-06T06:10:03.620Z,26.13
2022-12-06T06:10:50.328Z,26.11
2022-12-06T06:11:37.131Z,26.78
2022-12-06T06:12:23.896Z,27.46
2022-12-06T06:13:11.439Z,28.27
2022-12-06T06:13:58.572Z,26.93
2022-12-06T06:14:45.396Z,26.24
2022-12-06T06:15:32.146Z,26.84
2022-12-06T06:16:18.773Z,25.50
2022-12-06T06:17:05.478Z,27.88
2022-12-06T06:17:52.205Z,29.38
2022-12-06T06:18:39.141Z,26.49
2022-12-06T06:19:26.127Z,26.13
2022-12-06T06:20:13.974Z,27.72
2022-12-06T06:21:01.468Z,27.99
2022-12-06T06:21:49.196Z,27.24
2022-12-06T06:22:38.501Z,28.00
2022-12-06T06:23:30.618Z,29.28
2022-12-06T06:24:17.513Z,30.04
2022-12-06T06:25:06.267Z,30.25
2022-12-06T06:25:53.689Z,30.11
2022-12-06T06:26:40.483Z,28.62
2022-12-06T06:27:28.127Z,28.59
2022-12-06T06:28:14.677Z,31.17
2022-12-06T06:29:01.276Z,31.25
2022-12-06T06:29:47.761Z,32.58
2022-12-06T06:30:34.389Z,32.04
2022-12-06T06:31:21.593Z,30.70
2022-12-06T06:32:08.357Z,30.64
2022-12-06T06:32:55.664Z,29.39
2022-12-06T06:33:42.379Z,28.51
2022-12-06T06:34:28.864Z,28.75
2022-12-06T06:35:15.667Z,28.56
2022-12-06T06:36:02.356Z,30.48
2022-12-06T06:36:49.000Z,31.09
2022-12-06T06:37:35.973Z,31.89
2022-12-06T06:38:22.578Z,30.91
2022-12-06T06:39:09.580Z,30.01
2022-12-06T06:39:56.557Z,28.05
2022-12-06T06:40:43.009Z,28.50
2022-12-06T06:41:29.813Z,27.66
2022-12-06T06:42:18.150Z,30.03
2022-12-06T06:43:20.736Z,31.32
2022-12-06T06:44:07.402Z,31.05
2022-12-06T06:44:55.396Z,30.65
2022-12-06T06:45:41.972Z,30.88
2022-12-06T06:46:28.843Z,31.04
2022-12-06T06:47:15.522Z,29.59
2022-12-06T06:48:02.265Z,31.34
2022-12-06T06:48:48.714Z,30.59
2022-12-06T06:49:35.420Z,30.21
2022-12-06T06:50:22.143Z,28.07
2022-12-06T06:51:14.870Z,30.60
2022-12-06T06:52:01.629Z,30.10
2022-12-06T06:52:48.356Z,29.63
2022-12-06T06:53:35.857Z,29.18
2022-12-06T06:54:22.654Z,30.45
2022-12-06T06:55:09.423Z,31.01
2022-12-06T06:55:55.985Z,28.32
2022-12-06T06:56:43.046Z,29.73
2022-12-06T06:57:29.605Z,32.07
2022-12-06T06:58:16.306Z,31.96
2022-12-06T06:59:03.027Z,29.44
2022-12-06T06:59:49.809Z,31.08
2022-12-06T07:00:36.841Z,31.35
2022-12-06T07:01:24.811Z,32.31
2022-12-06T07:02:13.647Z,30.48
2022-12-06T07:03:00.383Z,31.41
2022-12-06T07:03:48.124Z,35.99
2022-12-06T07:04:34.604Z,35.85
2022-12-06T07:05:21.301Z,33.34
2022-12-06T07:06:10.148Z,30.68
2022-12-06T07:06:57.802Z,32.04
2022-12-06T07:07:46.550Z,32.41
2022-12-06T07:08:33.791Z,32.27
2022-12-06T07:09:20.585Z,31.72
2022-12-06T07:10:07.644Z,29.75
2022-12-06T07:10:54.547Z,30.89
2022-12-06T07:11:41.079Z,30.72
2022-12-06T07:12:27.557Z,30.69
2022-12-06T07:13:22.444Z,30.26
2022-12-06T07:14:09.111Z,29.08
2022-12-06T07:14:55.597Z,30.55
2022-12-06T07:15:42.528Z,29.43
2022-12-06T07:16:29.095Z,28.47
2022-12-06T07:17:15.992Z,30.31
2022-12-06T07:18:02.986Z,30.73
2022-12-06T07:18:49.885Z,29.94
2022-12-06T07:19:36.493Z,30.23
2022-12-06T07:20:23.120Z,30.61
2022-12-06T07:21:14.850Z,28.97
2022-12-06T07:22:01.502Z,29.74
2022-12-06T07:22:48.240Z,29.81
2022-12-06T07:23:36.089Z,29.93
2022-12-06T07:24:22.684Z,30.36
2022-12-06T07:25:09.563Z,30.60
2022-12-06T07:26:07.492Z,31.02
2022-12-06T07:26:56.859Z,29.46
2022-12-06T07:27:43.767Z,30.54
2022-12-06T07:28:30.388Z,31.90
2022-12-06T07:29:17.503Z,29.97
2022-12-06T07:30:06.193Z,29.25
2022-12-06T07:30:52.804Z,30.44
2022-12-06T07:31:41.124Z,30.54
2022-12-06T07:32:28.015Z,32.14
2022-12-06T07:33:14.513Z,32.61
2022-12-06T07:34:02.735Z,31.20
2022-12-06T07:34:49.238Z,30.24
2022-12-06T07:36:10.813Z,31.07
2022-12-06T07:36:42.515Z,31.62
2022-12-06T07:37:29.186Z,32.19
2022-12-06T07:38:15.732Z,30.53
2022-12-06T07:39:02.456Z,29.90
2022-12-06T07:39:49.177Z,32.12
2022-12-06T07:41:02.872Z,30.49
2022-12-06T07:42:01.286Z,29.89
2022-12-06T07:43:28.506Z,29.98
2022-12-06T07:44:37.624Z,30.94
2022-12-06T07:45:24.773Z,32.10
2022-12-06T07:46:12.009Z,29.99
2022-12-06T07:46:59.445Z,28.85
2022-12-06T07:47:46.651Z,31.51
2022-12-06T07:48:33.481Z,30.32
2022-12-06T07:49:20.208Z,31.06
2022-12-06T07:50:15.987Z,29.99
2022-12-06T07:51:05.735Z,28.99
2022-12-06T07:51:54.009Z,31.24
2022-12-06T07:52:40.616Z,32.66
2022-12-06T07:53:27.738Z,31.41
2022-12-06T07:54:15.740Z,32.22
2022-12-06T07:55:04.520Z,30.66
2022-12-06T07:55:51.032Z,29.46
2022-12-06T07:56:37.785Z,30.72
2022-12-06T07:57:24.288Z,30.07
2022-12-06T07:58:10.856Z,29.52
2022-12-06T07:58:57.496Z,29.27
2022-12-06T07:59:44.190Z,32.74
2022-12-06T08:00:31.805Z,33.14
2022-12-06T08:01:19.082Z,34.81
2022-12-06T08:02:05.905Z,32.22
2022-12-06T08:02:52.615Z,31.59
2022-12-06T08:03:39.127Z,31.99
2022-12-06T08:04:25.735Z,30.84
2022-12-06T08:05:13.171Z,31.30
2022-12-06T08:05:59.829Z,32.62
2022-12-06T08:06:46.787Z,33.28
2022-12-06T08:07:33.747Z,33.60
2022-12-06T08:08:23.834Z,30.22
2022-12-06T08:09:15.360Z,31.99
2022-12-06T08:10:02.287Z,30.12
2022-12-06T08:10:51.438Z,30.72
2022-12-06T08:11:41.062Z,29.86
2022-12-06T08:12:31.411Z,30.49
2022-12-06T08:13:17.981Z,28.16
2022-12-06T08:14:08.062Z,29.79
2022-12-06T08:14:59.801Z,30.00
2022-12-06T08:15:46.812Z,28.36
2022-12-06T08:16:33.487Z,28.93
2022-12-06T08:17:20.354Z,32.05
2022-12-06T08:18:07.059Z,30.93
2022-12-06T08:18:55.933Z,31.59
2022-12-06T08:19:42.816Z,33.16
2022-12-06T08:20:29.698Z,30.57
2022-12-06T08:21:16.763Z,29.72
2022-12-06T08:22:04.087Z,28.72
2022-12-06T08:22:50.791Z,28.68
2022-12-06T08:23:37.794Z,29.24
2022-12-06T08:24:25.263Z,29.46
2022-12-06T08:25:12.235Z,28.40
2022-12-06T08:26:05.560Z,29.43
2022-12-06T08:26:53.096Z,29.34
2022-12-06T08:27:40.023Z,32.31
2022-12-06T08:28:28.228Z,33.53
2022-12-06T08:29:14.949Z,33.55
2022-12-06T08:30:02.443Z,34.31
2022-12-06T08:31:01.274Z,32.77
2022-12-06T08:31:54.143Z,31.72
2022-12-06T08:32:40.904Z,31.54
2022-12-06T08:33:28.561Z,32.21
2022-12-06T08:34:15.579Z,31.38
2022-12-06T08:35:02.186Z,29.45
2022-12-06T08:35:50.755Z,30.86
2022-12-06T08:36:38.941Z,31.03
2022-12-06T08:37:25.750Z,31.35
2022-12-06T08:38:12.312Z,31.11
2022-12-06T08:39:00.453Z,30.77
2022-12-06T08:39:47.290Z,32.13
2022-12-06T08:40:34.557Z,33.95
2022-12-06T08:41:40.916Z,34.61
2022-12-06T08:42:27.562Z,33.28
2022-12-06T08:43:14.137Z,31.32
2022-12-06T08:44:02.346Z,31.71
2022-12-06T08:44:51.864Z,31.02
2022-12-06T08:45:38.470Z,31.26
2022-12-06T08:46:26.088Z,29.29
2022-12-06T08:47:12.665Z,30.47
2022-12-06T08:47:59.277Z,29.62
2022-12-06T08:48:45.721Z,29.21
2022-12-06T08:49:32.537Z,28.19
2022-12-06T08:50:19.242Z,28.20
2022-12-06T08:51:05.964Z,27.70
2022-12-06T08:51:53.494Z,27.84
2022-12-06T08:52:41.096Z,27.53
2022-12-06T08:53:27.620Z,29.32
2022-12-06T08:54:17.775Z,28.63
2022-12-06T08:55:04.624Z,28.48
2022-12-06T08:56:01.978Z,26.21
2022-12-06T08:56:49.964Z,27.53
2022-12-06T08:57:36.489Z,27.79
2022-12-06T08:58:23.008Z,26.55
2022-12-06T08:59:09.963Z,27.02
2022-12-06T08:59:56.761Z,27.98
2022-12-06T09:00:43.268Z,26.33
2022-12-06T09:01:37.668Z,27.19
2022-12-06T09:02:24.930Z,27.52
2022-12-06T09:03:11.603Z,27.90
2022-12-06T09:04:02.845Z,28.59
2022-12-06T09:04:52.797Z,27.94
2022-12-06T09:05:39.405Z,29.47
2022-12-06T09:06:26.648Z,29.38
2022-12-06T09:07:13.274Z,29.84
2022-12-06T09:07:59.814Z,29.34
2022-12-06T09:08:47.505Z,28.34
2022-12-06T09:09:34.126Z,30.99
2022-12-06T09:10:20.583Z,30.59
2022-12-06T09:11:08.439Z,28.82
2022-12-06T09:11:54.903Z,29.11
2022-12-06T09:12:41.549Z,29.80
2022-12-06T09:13:28.188Z,30.30
2022-12-06T09:14:21.448Z,29.20
2022-12-06T09:15:08.952Z,31.29
2022-12-06T09:15:55.793Z,32.11
2022-12-06T09:16:44.064Z,32.16
2022-12-06T09:17:30.578Z,31.99
2022-12-06T09:18:17.464Z,30.74
2022-12-06T09:19:04.179Z,32.89
2022-12-06T09:19:50.660Z,33.77
2022-12-06T09:20:40.549Z,32.05
2022-12-06T09:21:32.957Z,35.12
2022-12-06T09:22:19.661Z,34.69
2022-12-06T09:23:06.199Z,30.35
2022-12-06T09:23:57.183Z,31.21
2022-12-06T09:24:43.885Z,33.90
2022-12-06T09:25:30.371Z,34.52
2022-12-06T09:26:17.521Z,34.56
2022-12-06T09:27:04.157Z,35.35
2022-12-06T09:27:51.027Z,33.36
2022-12-06T09:28:41.014Z,31.87
2022-12-06T09:29:27.680Z,31.59
2022-12-06T09:30:15.198Z,30.86
2022-12-06T09:31:05.247Z,31.05
2022-12-06T09:31:54.169Z,31.84
2022-12-06T09:32:40.846Z,31.03
2022-12-06T09:33:27.325Z,30.88
2022-12-06T09:34:13.890Z,31.01
2022-12-06T09:35:00.398Z,31.42
2022-12-06T09:35:48.281Z,28.52
2022-12-06T09:36:59.651Z,31.64
2022-12-06T09:37:47.274Z,30.98
2022-12-06T09:38:37.164Z,31.43
2022-12-06T09:39:29.694Z,33.33
2022-12-06T09:40:31.293Z,34.26
2022-12-06T09:41:41.472Z,31.84
2022-12-06T09:42:53.361Z,32.19
2022-12-06T09:43:51.718Z,32.88
2022-12-06T09:44:52.933Z,30.18
2022-12-06T09:46:02.750Z,26.63
2022-12-06T09:47:15.287Z,23.33
2022-12-06T09:48:10.588Z,24.70
2022-12-06T09:49:05.932Z,23.82
2022-12-06T09:50:23.035Z,23.22
2022-12-06T09:51:19.241Z,22.65
2022-12-06T09:52:15.740Z,22.63
2022-12-06T09:53:14.002Z,23.53
2022-12-06T09:54:26.847Z,23.06
2022-12-06T09:55:36.724Z,22.43
2022-12-06T09:56:51.308Z,23.76
2022-12-06T09:57:44.867Z,23.76
2022-12-06T09:58:31.429Z,22.40
2022-12-06T10:00:11.443Z,23.29
2022-12-06T10:01:21.156Z,25.11
2022-12-06T10:02:29.067Z,26.95
2022-12-06T10:03:49.332Z,27.60
2022-12-06T10:04:53.500Z,30.28
2022-12-06T10:06:02.642Z,32.64
2022-12-06T10:06:57.419Z,35.78
2022-12-06T10:08:05.405Z,31.33
2022-12-06T10:09:22.609Z,31.82
2022-12-06T10:10:32.201Z,31.38
2022-12-06T10:11:43.381Z,29.17
2022-12-06T10:12:42.605Z,30.12
2022-12-06T10:14:08.977Z,29.66
2022-12-06T10:14:58.592Z,28.55
2022-12-06T10:16:10.178Z,29.12
2022-12-06T10:17:12.122Z,27.73
2022-12-06T10:18:24.628Z,29.52
2022-12-06T10:19:41.722Z,29.34
2022-12-06T10:20:43.938Z,29.25
2022-12-06T10:21:57.860Z,27.65
2022-12-06T10:23:10.510Z,28.00
2022-12-06T10:24:26.887Z,26.58
2022-12-06T10:25:23.679Z,25.43
2022-12-06T10:26:19.391Z,23.92
2022-12-06T10:27:15.773Z,24.03
2022-12-06T10:28:18.432Z,23.70
2022-12-06T10:29:13.336Z,22.51
2022-12-06T10:30:10.915Z,22.64
2022-12-06T10:31:21.857Z,22.92
2022-12-06T10:32:49.892Z,21.43
2022-12-06T10:33:52.270Z,22.66
2022-12-06T10:34:54.153Z,21.80
2022-12-06T10:35:56.156Z,22.83
2022-12-06T10:36:59.367Z,21.93
2022-12-06T10:38:02.997Z,21.78
2022-12-06T10:38:56.304Z,20.54
2022-12-06T10:40:07.024Z,21.35
2022-12-06T10:41:21.175Z,21.75
2022-12-06T10:42:23.773Z,21.23
2022-12-06T10:43:29.753Z,21.55
2022-12-06T10:44:32.969Z,22.03
2022-12-06T10:45:48.804Z,22.66
2022-12-06T10:47:06.495Z,22.34
2022-12-06T10:48:00.724Z,21.13
2022-12-06T10:49:18.302Z,21.06
2022-12-06T10:50:33.134Z,20.40
2022-12-06T10:51:37.470Z,20.19
2022-12-06T10:52:32.222Z,21.07
2022-12-06T10:53:25.060Z,20.23
2022-12-06T10:54:22.254Z,20.04
2022-12-06T10:55:12.498Z,20.45
2022-12-06T10:56:07.630Z,18.41
2022-12-06T10:56:58.474Z,19.99
2022-12-06T10:58:30.025Z,19.75
2022-12-06T10:59:39.215Z,19.90
2022-12-06T11:00:28.475Z,20.20
2022-12-06T11:01:25.979Z,20.23
2022-12-06T11:02:28.465Z,20.46
2022-12-06T11:03:25.626Z,19.90
2022-12-06T11:04:20.176Z,20.31
2022-12-06T11:05:42.057Z,21.22
2022-12-06T11:06:38.821Z,20.01
2022-12-06T11:07:36.199Z,20.80